Colonial Heights, Tennessee
Current Conditions -  °F | °C
As of 4:53 AM on Monday 26 Jan 2015 (Local Time) from KTRI Reporting Station
Light Rain Light Rain  
Wind Chill: 38°   Ceiling: 1600
Heat Index: 41°   Visibility: 9mi
Dew Point: 39°   Wind: 5mph
Humidity: 93%   Direction: 220°SW
Pressure: 29.63"   Gusts: NA
Location:  36.4621°N, 82.5069°W
Report Text: KTRI 260953Z 22004KT 9SM -RA BKN016 BKN022 OVC031 05/04 A2963 RMK AO2 SLP025 P0004 T00500039
Loading
Personal Weather Stations






























Interactive Weather Map New forecast layout! Learn more

10-Day Weather Forecast

Advertisements
Track Severe Weather on mobile